Terminal Aerodrome Forecast
Issued by NWS Sterling, VA

Home | Current Version | Previous Version | Text Only | Print | Product List | Glossary On
Versions: 1 2 3 4 5 6 7 8 9 10 11 12 13 14 15
000
FTUS41 KLWX 220500
TAFMRB
TAF
KMRB 220535Z 2206/2306 29013G20KT P6SM SKC
     FM221400 32013G24KT P6SM SCT130
     FM222100 31009KT P6SM FEW250
     FM230300 32004KT P6SM SKC=

USA.gov is the U.S. government's official web portal to all federal, state and local government web resources and services.